sensor_id;sensor_type;location;lat;lon;timestamp;P1;durP1;ratioP1;P2;durP2;ratioP2
11054;SDS011;5580;50.106;8.702;2022-08-26T00:00:53;12.33;;;7.50;;
11054;SDS011;5580;50.106;8.702;2022-08-26T00:03:19;14.63;;;7.90;;
11054;SDS011;5580;50.106;8.702;2022-08-26T00:05:46;11.30;;;7.27;;
11054;SDS011;5580;50.106;8.702;2022-08-26T00:08:14;17.33;;;8.03;;
11054;SDS011;5580;50.106;8.702;2022-08-26T00:10:40;14.33;;;7.80;;
11054;SDS011;5580;50.106;8.702;2022-08-26T00:13:06;13.40;;;7.80;;
11054;SDS011;5580;50.106;8.702;2022-08-26T00:15:34;12.33;;;7.90;;
11054;SDS011;5580;50.106;8.702;2022-08-26T00:18:01;13.10;;;8.00;;
11054;SDS011;5580;50.106;8.702;2022-08-26T00:20:28;13.80;;;8.53;;
11054;SDS011;5580;50.106;8.702;2022-08-26T00:22:55;16.10;;;8.87;;
11054;SDS011;5580;50.106;8.702;2022-08-26T00:25:21;15.80;;;8.70;;
11054;SDS011;5580;50.106;8.702;2022-08-26T00:27:47;15.63;;;8.63;;
11054;SDS011;5580;50.106;8.702;2022-08-26T00:30:15;14.80;;;7.93;;
11054;SDS011;5580;50.106;8.702;2022-08-26T00:32:44;15.07;;;7.90;;
11054;SDS011;5580;50.106;8.702;2022-08-26T00:35:09;12.80;;;7.73;;
11054;SDS011;5580;50.106;8.702;2022-08-26T00:37:37;17.33;;;8.27;;
11054;SDS011;5580;50.106;8.702;2022-08-26T00:40:04;10.70;;;7.10;;
11054;SDS011;5580;50.106;8.702;2022-08-26T00:42:31;12.77;;;7.80;;
11054;SDS011;5580;50.106;8.702;2022-08-26T00:44:57;12.90;;;7.77;;
11054;SDS011;5580;50.106;8.702;2022-08-26T00:47:31;11.20;;;7.33;;
11054;SDS011;5580;50.106;8.702;2022-08-26T00:50:02;14.37;;;7.63;;
11054;SDS011;5580;50.106;8.702;2022-08-26T00:52:31;11.63;;;7.23;;
11054;SDS011;5580;50.106;8.702;2022-08-26T00:57:44;14.37;;;7.83;;
11054;SDS011;5580;50.106;8.702;2022-08-26T01:00:15;12.43;;;7.27;;
11054;SDS011;5580;50.106;8.702;2022-08-26T01:02:44;12.97;;;7.97;;
11054;SDS011;5580;50.106;8.702;2022-08-26T01:05:12;15.37;;;7.73;;
11054;SDS011;5580;50.106;8.702;2022-08-26T01:07:39;13.13;;;7.70;;
11054;SDS011;5580;50.106;8.702;2022-08-26T01:10:06;16.47;;;8.07;;
11054;SDS011;5580;50.106;8.702;2022-08-26T01:12:40;16.87;;;8.03;;
11054;SDS011;5580;50.106;8.702;2022-08-26T01:15:14;14.50;;;8.10;;
11054;SDS011;5580;50.106;8.702;2022-08-26T01:17:44;13.43;;;8.13;;
11054;SDS011;5580;50.106;8.702;2022-08-26T01:20:24;14.63;;;8.13;;
11054;SDS011;5580;50.106;8.702;2022-08-26T01:22:59;12.80;;;7.90;;
11054;SDS011;5580;50.106;8.702;2022-08-26T01:25:30;15.60;;;8.40;;
11054;SDS011;5580;50.106;8.702;2022-08-26T01:27:59;14.53;;;7.90;;
11054;SDS011;5580;50.106;8.702;2022-08-26T01:30:29;14.80;;;7.77;;
11054;SDS011;5580;50.106;8.702;2022-08-26T01:32:57;13.67;;;8.30;;
11054;SDS011;5580;50.106;8.702;2022-08-26T01:35:25;14.03;;;8.00;;
11054;SDS011;5580;50.106;8.702;2022-08-26T01:37:52;12.20;;;8.10;;
11054;SDS011;5580;50.106;8.702;2022-08-26T01:40:20;14.57;;;7.97;;
11054;SDS011;5580;50.106;8.702;2022-08-26T01:42:52;15.67;;;8.00;;
11054;SDS011;5580;50.106;8.702;2022-08-26T01:45:20;14.67;;;8.33;;
11054;SDS011;5580;50.106;8.702;2022-08-26T01:47:49;14.93;;;8.00;;
11054;SDS011;5580;50.106;8.702;2022-08-26T01:50:18;13.30;;;8.10;;
11054;SDS011;5580;50.106;8.702;2022-08-26T01:52:47;16.87;;;8.60;;
11054;SDS011;5580;50.106;8.702;2022-08-26T01:55:14;15.73;;;7.70;;
11054;SDS011;5580;50.106;8.702;2022-08-26T01:57:42;13.90;;;7.70;;
11054;SDS011;5580;50.106;8.702;2022-08-26T02:00:11;13.57;;;7.90;;
11054;SDS011;5580;50.106;8.702;2022-08-26T02:02:39;12.10;;;7.57;;
11054;SDS011;5580;50.106;8.702;2022-08-26T02:05:06;13.23;;;7.90;;
11054;SDS011;5580;50.106;8.702;2022-08-26T02:07:34;15.13;;;7.70;;
11054;SDS011;5580;50.106;8.702;2022-08-26T02:10:02;15.37;;;7.60;;
11054;SDS011;5580;50.106;8.702;2022-08-26T02:12:29;12.57;;;8.13;;
11054;SDS011;5580;50.106;8.702;2022-08-26T02:14:55;15.37;;;8.30;;
11054;SDS011;5580;50.106;8.702;2022-08-26T02:17:28;15.10;;;8.17;;
11054;SDS011;5580;50.106;8.702;2022-08-26T02:19:59;14.67;;;7.90;;
11054;SDS011;5580;50.106;8.702;2022-08-26T02:22:25;13.07;;;7.63;;
11054;SDS011;5580;50.106;8.702;2022-08-26T02:24:54;13.83;;;7.80;;
11054;SDS011;5580;50.106;8.702;2022-08-26T02:27:23;13.43;;;7.90;;
11054;SDS011;5580;50.106;8.702;2022-08-26T02:32:59;12.10;;;7.60;;
11054;SDS011;5580;50.106;8.702;2022-08-26T02:35:28;13.47;;;8.30;;
11054;SDS011;5580;50.106;8.702;2022-08-26T02:37:55;18.40;;;8.17;;
11054;SDS011;5580;50.106;8.702;2022-08-26T02:40:23;13.73;;;7.93;;
11054;SDS011;5580;50.106;8.702;2022-08-26T02:42:51;15.27;;;8.20;;
11054;SDS011;5580;50.106;8.702;2022-08-26T02:45:16;13.23;;;8.07;;
11054;SDS011;5580;50.106;8.702;2022-08-26T02:47:42;12.43;;;7.73;;
11054;SDS011;5580;50.106;8.702;2022-08-26T02:50:09;11.57;;;7.70;;
11054;SDS011;5580;50.106;8.702;2022-08-26T02:52:35;12.80;;;7.93;;
11054;SDS011;5580;50.106;8.702;2022-08-26T02:55:01;14.63;;;8.37;;
11054;SDS011;5580;50.106;8.702;2022-08-26T02:57:27;14.10;;;8.70;;
11054;SDS011;5580;50.106;8.702;2022-08-26T02:59:53;14.03;;;9.23;;
11054;SDS011;5580;50.106;8.702;2022-08-26T03:02:19;13.03;;;8.10;;
11054;SDS011;5580;50.106;8.702;2022-08-26T03:04:45;14.63;;;8.40;;
11054;SDS011;5580;50.106;8.702;2022-08-26T03:07:11;13.03;;;8.77;;
11054;SDS011;5580;50.106;8.702;2022-08-26T03:09:36;14.30;;;8.67;;
11054;SDS011;5580;50.106;8.702;2022-08-26T03:12:02;18.03;;;8.50;;
11054;SDS011;5580;50.106;8.702;2022-08-26T03:14:28;13.30;;;7.97;;
11054;SDS011;5580;50.106;8.702;2022-08-26T03:16:54;14.93;;;8.40;;
11054;SDS011;5580;50.106;8.702;2022-08-26T03:19:21;13.93;;;8.30;;
11054;SDS011;5580;50.106;8.702;2022-08-26T03:21:47;14.90;;;8.73;;
11054;SDS011;5580;50.106;8.702;2022-08-26T03:24:13;18.00;;;8.30;;
11054;SDS011;5580;50.106;8.702;2022-08-26T03:26:39;14.13;;;8.70;;
11054;SDS011;5580;50.106;8.702;2022-08-26T03:29:05;13.57;;;8.90;;
11054;SDS011;5580;50.106;8.702;2022-08-26T03:31:49;18.83;;;9.47;;
11054;SDS011;5580;50.106;8.702;2022-08-26T03:34:15;13.97;;;8.77;;
11054;SDS011;5580;50.106;8.702;2022-08-26T03:36:42;12.57;;;8.17;;
11054;SDS011;5580;50.106;8.702;2022-08-26T03:39:08;18.67;;;8.97;;
11054;SDS011;5580;50.106;8.702;2022-08-26T03:41:34;16.23;;;8.67;;
11054;SDS011;5580;50.106;8.702;2022-08-26T03:44:01;14.70;;;8.23;;
11054;SDS011;5580;50.106;8.702;2022-08-26T03:46:29;14.57;;;8.50;;
11054;SDS011;5580;50.106;8.702;2022-08-26T03:48:56;13.00;;;8.43;;
11054;SDS011;5580;50.106;8.702;2022-08-26T03:51:22;13.47;;;8.50;;
11054;SDS011;5580;50.106;8.702;2022-08-26T03:53:48;16.87;;;8.90;;
11054;SDS011;5580;50.106;8.702;2022-08-26T03:56:14;14.07;;;8.53;;
11054;SDS011;5580;50.106;8.702;2022-08-26T03:58:40;17.93;;;8.97;;
11054;SDS011;5580;50.106;8.702;2022-08-26T04:01:05;13.53;;;8.97;;
11054;SDS011;5580;50.106;8.702;2022-08-26T04:03:31;16.20;;;8.67;;
11054;SDS011;5580;50.106;8.702;2022-08-26T04:06:16;13.20;;;8.73;;
11054;SDS011;5580;50.106;8.702;2022-08-26T04:08:41;16.87;;;8.60;;
11054;SDS011;5580;50.106;8.702;2022-08-26T04:11:07;16.50;;;8.93;;
11054;SDS011;5580;50.106;8.702;2022-08-26T04:13:33;13.20;;;8.43;;
11054;SDS011;5580;50.106;8.702;2022-08-26T04:15:59;14.27;;;8.70;;
11054;SDS011;5580;50.106;8.702;2022-08-26T04:18:24;17.80;;;8.87;;
11054;SDS011;5580;50.106;8.702;2022-08-26T04:20:51;14.93;;;9.00;;
11054;SDS011;5580;50.106;8.702;2022-08-26T04:23:17;14.67;;;9.03;;
11054;SDS011;5580;50.106;8.702;2022-08-26T04:25:43;15.80;;;8.80;;
11054;SDS011;5580;50.106;8.702;2022-08-26T04:28:09;14.63;;;9.10;;
11054;SDS011;5580;50.106;8.702;2022-08-26T04:30:38;19.87;;;9.57;;
11054;SDS011;5580;50.106;8.702;2022-08-26T04:33:04;16.90;;;9.07;;
11054;SDS011;5580;50.106;8.702;2022-08-26T04:35:31;19.30;;;9.30;;
11054;SDS011;5580;50.106;8.702;2022-08-26T04:37:58;17.23;;;9.63;;
11054;SDS011;5580;50.106;8.702;2022-08-26T04:40:23;15.20;;;9.30;;
11054;SDS011;5580;50.106;8.702;2022-08-26T04:42:51;15.07;;;9.03;;
11054;SDS011;5580;50.106;8.702;2022-08-26T04:45:17;19.07;;;10.00;;
11054;SDS011;5580;50.106;8.702;2022-08-26T04:47:43;19.27;;;9.60;;
11054;SDS011;5580;50.106;8.702;2022-08-26T04:50:08;21.50;;;10.30;;
11054;SDS011;5580;50.106;8.702;2022-08-26T04:52:34;19.67;;;9.70;;
11054;SDS011;5580;50.106;8.702;2022-08-26T04:55:00;24.87;;;10.60;;
11054;SDS011;5580;50.106;8.702;2022-08-26T04:57:26;19.43;;;10.30;;
11054;SDS011;5580;50.106;8.702;2022-08-26T04:59:51;19.07;;;9.37;;
11054;SDS011;5580;50.106;8.702;2022-08-26T05:02:17;17.90;;;9.60;;
11054;SDS011;5580;50.106;8.702;2022-08-26T05:04:43;17.80;;;9.83;;
11054;SDS011;5580;50.106;8.702;2022-08-26T05:07:09;17.30;;;9.27;;
11054;SDS011;5580;50.106;8.702;2022-08-26T05:09:38;20.70;;;9.63;;
11054;SDS011;5580;50.106;8.702;2022-08-26T05:12:04;18.97;;;9.00;;
11054;SDS011;5580;50.106;8.702;2022-08-26T05:14:30;13.37;;;8.57;;
11054;SDS011;5580;50.106;8.702;2022-08-26T05:16:56;16.97;;;9.50;;
11054;SDS011;5580;50.106;8.702;2022-08-26T05:19:22;19.03;;;9.60;;
11054;SDS011;5580;50.106;8.702;2022-08-26T05:21:48;18.07;;;9.73;;
11054;SDS011;5580;50.106;8.702;2022-08-26T05:24:14;18.43;;;8.63;;
11054;SDS011;5580;50.106;8.702;2022-08-26T05:26:40;17.30;;;9.10;;
11054;SDS011;5580;50.106;8.702;2022-08-26T05:29:06;19.67;;;9.57;;
11054;SDS011;5580;50.106;8.702;2022-08-26T05:31:32;16.53;;;9.53;;
11054;SDS011;5580;50.106;8.702;2022-08-26T05:33:59;15.20;;;9.20;;
11054;SDS011;5580;50.106;8.702;2022-08-26T05:36:26;17.50;;;9.13;;
11054;SDS011;5580;50.106;8.702;2022-08-26T05:38:54;16.70;;;9.63;;
11054;SDS011;5580;50.106;8.702;2022-08-26T05:41:21;18.63;;;9.93;;
11054;SDS011;5580;50.106;8.702;2022-08-26T05:43:52;22.27;;;10.10;;
11054;SDS011;5580;50.106;8.702;2022-08-26T05:46:19;17.90;;;9.97;;
11054;SDS011;5580;50.106;8.702;2022-08-26T05:48:45;20.80;;;9.93;;
11054;SDS011;5580;50.106;8.702;2022-08-26T05:51:10;17.17;;;10.10;;
11054;SDS011;5580;50.106;8.702;2022-08-26T05:53:37;19.00;;;9.63;;
11054;SDS011;5580;50.106;8.702;2022-08-26T05:56:05;20.50;;;10.00;;
11054;SDS011;5580;50.106;8.702;2022-08-26T05:58:32;19.93;;;10.00;;
11054;SDS011;5580;50.106;8.702;2022-08-26T06:01:00;20.00;;;9.90;;
11054;SDS011;5580;50.106;8.702;2022-08-26T06:03:26;18.77;;;10.07;;
11054;SDS011;5580;50.106;8.702;2022-08-26T06:05:52;23.03;;;10.60;;
11054;SDS011;5580;50.106;8.702;2022-08-26T06:08:18;19.17;;;9.97;;
11054;SDS011;5580;50.106;8.702;2022-08-26T06:13:15;17.53;;;9.77;;
11054;SDS011;5580;50.106;8.702;2022-08-26T06:15:46;20.40;;;10.03;;
11054;SDS011;5580;50.106;8.702;2022-08-26T06:18:15;22.23;;;10.07;;
11054;SDS011;5580;50.106;8.702;2022-08-26T06:20:45;23.03;;;10.70;;
11054;SDS011;5580;50.106;8.702;2022-08-26T06:23:12;19.70;;;9.97;;
11054;SDS011;5580;50.106;8.702;2022-08-26T06:25:58;21.20;;;10.37;;
11054;SDS011;5580;50.106;8.702;2022-08-26T06:28:24;22.73;;;10.53;;
11054;SDS011;5580;50.106;8.702;2022-08-26T06:30:51;13.37;;;9.00;;
11054;SDS011;5580;50.106;8.702;2022-08-26T06:33:17;14.27;;;9.40;;
11054;SDS011;5580;50.106;8.702;2022-08-26T06:35:43;17.13;;;9.57;;
11054;SDS011;5580;50.106;8.702;2022-08-26T06:38:12;17.87;;;9.33;;
11054;SDS011;5580;50.106;8.702;2022-08-26T06:40:48;18.13;;;9.50;;
11054;SDS011;5580;50.106;8.702;2022-08-26T06:43:16;17.67;;;9.90;;
11054;SDS011;5580;50.106;8.702;2022-08-26T06:45:42;17.00;;;9.77;;
11054;SDS011;5580;50.106;8.702;2022-08-26T06:48:09;19.43;;;9.87;;
11054;SDS011;5580;50.106;8.702;2022-08-26T06:50:36;19.87;;;9.77;;
11054;SDS011;5580;50.106;8.702;2022-08-26T06:53:02;16.00;;;9.73;;
11054;SDS011;5580;50.106;8.702;2022-08-26T06:55:27;20.50;;;10.47;;
11054;SDS011;5580;50.106;8.702;2022-08-26T06:57:53;16.67;;;9.97;;
11054;SDS011;5580;50.106;8.702;2022-08-26T07:00:20;18.97;;;9.43;;
11054;SDS011;5580;50.106;8.702;2022-08-26T07:02:46;16.20;;;9.73;;
11054;SDS011;5580;50.106;8.702;2022-08-26T07:05:12;18.10;;;10.07;;
11054;SDS011;5580;50.106;8.702;2022-08-26T07:07:37;19.03;;;10.70;;
11054;SDS011;5580;50.106;8.702;2022-08-26T07:10:03;16.90;;;9.80;;
11054;SDS011;5580;50.106;8.702;2022-08-26T07:12:30;17.20;;;10.20;;
11054;SDS011;5580;50.106;8.702;2022-08-26T07:14:56;20.43;;;10.13;;
11054;SDS011;5580;50.106;8.702;2022-08-26T07:17:22;16.03;;;10.10;;
11054;SDS011;5580;50.106;8.702;2022-08-26T07:19:47;17.60;;;10.30;;
11054;SDS011;5580;50.106;8.702;2022-08-26T07:22:13;20.40;;;10.50;;
11054;SDS011;5580;50.106;8.702;2022-08-26T07:24:39;22.37;;;10.47;;
11054;SDS011;5580;50.106;8.702;2022-08-26T07:27:07;17.50;;;10.00;;
11054;SDS011;5580;50.106;8.702;2022-08-26T07:29:36;19.00;;;9.90;;
11054;SDS011;5580;50.106;8.702;2022-08-26T07:32:03;20.63;;;10.63;;
11054;SDS011;5580;50.106;8.702;2022-08-26T07:34:29;17.10;;;10.17;;
11054;SDS011;5580;50.106;8.702;2022-08-26T07:36:56;17.50;;;9.83;;
11054;SDS011;5580;50.106;8.702;2022-08-26T07:39:23;16.67;;;9.87;;
11054;SDS011;5580;50.106;8.702;2022-08-26T07:41:49;17.40;;;10.00;;
11054;SDS011;5580;50.106;8.702;2022-08-26T07:44:15;24.67;;;10.40;;
11054;SDS011;5580;50.106;8.702;2022-08-26T07:46:41;25.83;;;10.47;;
11054;SDS011;5580;50.106;8.702;2022-08-26T07:49:07;19.37;;;10.07;;
11054;SDS011;5580;50.106;8.702;2022-08-26T07:51:33;20.40;;;9.63;;
11054;SDS011;5580;50.106;8.702;2022-08-26T07:53:59;17.47;;;9.80;;
11054;SDS011;5580;50.106;8.702;2022-08-26T07:56:25;17.80;;;10.27;;
11054;SDS011;5580;50.106;8.702;2022-08-26T07:58:51;15.97;;;9.97;;
11054;SDS011;5580;50.106;8.702;2022-08-26T08:01:21;18.00;;;9.73;;
11054;SDS011;5580;50.106;8.702;2022-08-26T08:03:48;16.77;;;10.27;;
11054;SDS011;5580;50.106;8.702;2022-08-26T08:06:15;15.43;;;10.07;;
11054;SDS011;5580;50.106;8.702;2022-08-26T08:08:42;18.13;;;9.90;;
11054;SDS011;5580;50.106;8.702;2022-08-26T08:11:08;17.73;;;9.80;;
11054;SDS011;5580;50.106;8.702;2022-08-26T08:13:35;22.20;;;9.73;;
11054;SDS011;5580;50.106;8.702;2022-08-26T08:16:01;17.77;;;9.90;;
11054;SDS011;5580;50.106;8.702;2022-08-26T08:18:26;18.53;;;10.43;;
11054;SDS011;5580;50.106;8.702;2022-08-26T08:20:52;16.17;;;9.83;;
11054;SDS011;5580;50.106;8.702;2022-08-26T08:23:18;15.00;;;9.43;;
11054;SDS011;5580;50.106;8.702;2022-08-26T08:25:44;16.77;;;9.97;;
11054;SDS011;5580;50.106;8.702;2022-08-26T08:28:10;15.17;;;10.43;;
11054;SDS011;5580;50.106;8.702;2022-08-26T08:30:36;16.20;;;9.27;;
11054;SDS011;5580;50.106;8.702;2022-08-26T08:33:03;16.07;;;9.90;;
11054;SDS011;5580;50.106;8.702;2022-08-26T08:35:28;15.27;;;10.33;;
11054;SDS011;5580;50.106;8.702;2022-08-26T08:37:54;16.83;;;9.80;;
11054;SDS011;5580;50.106;8.702;2022-08-26T08:40:21;19.07;;;10.30;;
11054;SDS011;5580;50.106;8.702;2022-08-26T08:42:57;16.50;;;9.67;;
11054;SDS011;5580;50.106;8.702;2022-08-26T08:45:30;17.00;;;10.13;;
11054;SDS011;5580;50.106;8.702;2022-08-26T08:48:30;19.00;;;10.40;;
11054;SDS011;5580;50.106;8.702;2022-08-26T08:51:12;19.20;;;10.27;;
11054;SDS011;5580;50.106;8.702;2022-08-26T08:53:46;17.20;;;10.20;;
11054;SDS011;5580;50.106;8.702;2022-08-26T08:59:20;19.77;;;10.10;;
11054;SDS011;5580;50.106;8.702;2022-08-26T09:01:53;18.73;;;10.40;;
11054;SDS011;5580;50.106;8.702;2022-08-26T09:07:05;19.80;;;10.60;;
11054;SDS011;5580;50.106;8.702;2022-08-26T09:12:16;18.77;;;11.10;;
11054;SDS011;5580;50.106;8.702;2022-08-26T09:14:50;18.10;;;10.50;;
11054;SDS011;5580;50.106;8.702;2022-08-26T09:17:37;16.67;;;10.77;;
11054;SDS011;5580;50.106;8.702;2022-08-26T09:20:13;20.17;;;10.80;;
11054;SDS011;5580;50.106;8.702;2022-08-26T09:22:44;17.70;;;10.23;;
11054;SDS011;5580;50.106;8.702;2022-08-26T09:25:11;22.87;;;10.60;;
11054;SDS011;5580;50.106;8.702;2022-08-26T09:27:45;16.93;;;10.37;;
11054;SDS011;5580;50.106;8.702;2022-08-26T09:30:34;16.53;;;10.77;;
11054;SDS011;5580;50.106;8.702;2022-08-26T09:33:09;18.47;;;10.77;;
11054;SDS011;5580;50.106;8.702;2022-08-26T09:35:42;17.47;;;9.93;;
11054;SDS011;5580;50.106;8.702;2022-08-26T09:38:22;22.03;;;10.83;;
11054;SDS011;5580;50.106;8.702;2022-08-26T09:40:53;20.83;;;10.30;;
11054;SDS011;5580;50.106;8.702;2022-08-26T09:43:26;15.73;;;9.87;;
11054;SDS011;5580;50.106;8.702;2022-08-26T09:48:55;19.37;;;10.10;;
11054;SDS011;5580;50.106;8.702;2022-08-26T09:51:42;17.77;;;9.77;;
11054;SDS011;5580;50.106;8.702;2022-08-26T09:54:08;18.77;;;10.50;;
11054;SDS011;5580;50.106;8.702;2022-08-26T09:56:50;14.67;;;10.07;;
11054;SDS011;5580;50.106;8.702;2022-08-26T09:59:28;16.80;;;10.13;;
11054;SDS011;5580;50.106;8.702;2022-08-26T10:01:54;20.73;;;9.77;;
11054;SDS011;5580;50.106;8.702;2022-08-26T10:04:38;13.90;;;9.23;;
11054;SDS011;5580;50.106;8.702;2022-08-26T10:07:05;16.10;;;9.65;;
11054;SDS011;5580;50.106;8.702;2022-08-26T10:09:33;14.10;;;9.43;;
11054;SDS011;5580;50.106;8.702;2022-08-26T10:12:12;15.67;;;9.50;;
11054;SDS011;5580;50.106;8.702;2022-08-26T10:14:44;15.10;;;9.53;;
11054;SDS011;5580;50.106;8.702;2022-08-26T10:17:37;16.00;;;9.77;;
11054;SDS011;5580;50.106;8.702;2022-08-26T10:20:14;15.88;;;9.63;;
11054;SDS011;5580;50.106;8.702;2022-08-26T10:23:02;14.60;;;9.40;;
11054;SDS011;5580;50.106;8.702;2022-08-26T10:25:46;15.85;;;9.43;;
11054;SDS011;5580;50.106;8.702;2022-08-26T10:31:06;16.40;;;9.43;;
11054;SDS011;5580;50.106;8.702;2022-08-26T10:33:40;15.52;;;9.65;;
11054;SDS011;5580;50.106;8.702;2022-08-26T10:36:06;14.88;;;9.05;;
11054;SDS011;5580;50.106;8.702;2022-08-26T10:38:57;17.42;;;9.30;;
11054;SDS011;5580;50.106;8.702;2022-08-26T10:41:25;17.77;;;9.55;;
11054;SDS011;5580;50.106;8.702;2022-08-26T10:43:59;15.57;;;9.50;;
11054;SDS011;5580;50.106;8.702;2022-08-26T10:46:28;13.75;;;9.45;;
11054;SDS011;5580;50.106;8.702;2022-08-26T10:49:09;15.13;;;8.75;;
11054;SDS011;5580;50.106;8.702;2022-08-26T10:51:46;13.35;;;9.63;;
11054;SDS011;5580;50.106;8.702;2022-08-26T10:54:22;18.53;;;9.53;;
11054;SDS011;5580;50.106;8.702;2022-08-26T11:03:02;14.82;;;9.48;;
11054;SDS011;5580;50.106;8.702;2022-08-26T11:05:32;14.88;;;9.70;;
11054;SDS011;5580;50.106;8.702;2022-08-26T11:10:57;14.48;;;9.80;;
11054;SDS011;5580;50.106;8.702;2022-08-26T11:16:31;14.23;;;9.50;;
11054;SDS011;5580;50.106;8.702;2022-08-26T11:19:08;14.95;;;9.57;;
11054;SDS011;5580;50.106;8.702;2022-08-26T11:21:40;15.70;;;9.93;;
11054;SDS011;5580;50.106;8.702;2022-08-26T11:24:41;18.92;;;10.23;;
11054;SDS011;5580;50.106;8.702;2022-08-26T11:27:11;16.15;;;10.30;;
11054;SDS011;5580;50.106;8.702;2022-08-26T11:32:48;17.58;;;10.40;;
11054;SDS011;5580;50.106;8.702;2022-08-26T11:37:49;16.55;;;11.20;;
11054;SDS011;5580;50.106;8.702;2022-08-26T11:40:19;17.73;;;13.25;;
11054;SDS011;5580;50.106;8.702;2022-08-26T11:43:31;20.23;;;13.38;;
11054;SDS011;5580;50.106;8.702;2022-08-26T11:45:48;21.30;;;14.07;;
11054;SDS011;5580;50.106;8.702;2022-08-26T11:48:34;19.38;;;14.43;;
11054;SDS011;5580;50.106;8.702;2022-08-26T11:53:33;22.97;;;15.60;;
11054;SDS011;5580;50.106;8.702;2022-08-26T11:56:03;23.58;;;16.40;;
11054;SDS011;5580;50.106;8.702;2022-08-26T11:58:32;23.67;;;15.18;;
11054;SDS011;5580;50.106;8.702;2022-08-26T12:03:46;21.75;;;15.23;;
11054;SDS011;5580;50.106;8.702;2022-08-26T12:06:15;20.30;;;14.35;;
11054;SDS011;5580;50.106;8.702;2022-08-26T12:08:45;23.77;;;14.65;;
11054;SDS011;5580;50.106;8.702;2022-08-26T12:16:39;17.77;;;13.43;;
11054;SDS011;5580;50.106;8.702;2022-08-26T12:22:04;20.58;;;14.00;;
11054;SDS011;5580;50.106;8.702;2022-08-26T12:24:45;20.23;;;15.38;;
11054;SDS011;5580;50.106;8.702;2022-08-26T12:27:21;19.85;;;13.90;;
11054;SDS011;5580;50.106;8.702;2022-08-26T12:32:31;21.33;;;14.30;;
11054;SDS011;5580;50.106;8.702;2022-08-26T12:34:59;20.38;;;14.40;;
11054;SDS011;5580;50.106;8.702;2022-08-26T12:37:26;24.10;;;15.10;;
11054;SDS011;5580;50.106;8.702;2022-08-26T12:40:04;22.63;;;14.82;;
11054;SDS011;5580;50.106;8.702;2022-08-26T12:42:49;18.67;;;15.15;;
11054;SDS011;5580;50.106;8.702;2022-08-26T12:45:24;19.50;;;14.98;;
11054;SDS011;5580;50.106;8.702;2022-08-26T12:47:56;21.45;;;15.77;;
11054;SDS011;5580;50.106;8.702;2022-08-26T12:50:25;20.00;;;15.13;;
11054;SDS011;5580;50.106;8.702;2022-08-26T13:08:53;17.73;;;13.48;;
11054;SDS011;5580;50.106;8.702;2022-08-26T13:11:31;20.42;;;14.05;;
11054;SDS011;5580;50.106;8.702;2022-08-26T13:14:18;22.15;;;14.40;;
11054;SDS011;5580;50.106;8.702;2022-08-26T13:16:45;22.42;;;14.00;;
11054;SDS011;5580;50.106;8.702;2022-08-26T13:19:12;17.90;;;13.65;;
11054;SDS011;5580;50.106;8.702;2022-08-26T13:21:50;20.42;;;13.63;;
11054;SDS011;5580;50.106;8.702;2022-08-26T13:27:01;18.65;;;12.77;;
11054;SDS011;5580;50.106;8.702;2022-08-26T13:29:27;18.05;;;12.35;;
11054;SDS011;5580;50.106;8.702;2022-08-26T13:31:53;19.98;;;12.80;;
11054;SDS011;5580;50.106;8.702;2022-08-26T13:34:19;19.45;;;13.23;;
11054;SDS011;5580;50.106;8.702;2022-08-26T13:36:47;19.85;;;13.52;;
11054;SDS011;5580;50.106;8.702;2022-08-26T13:39:13;18.52;;;13.15;;
11054;SDS011;5580;50.106;8.702;2022-08-26T13:41:39;20.65;;;13.60;;
11054;SDS011;5580;50.106;8.702;2022-08-26T13:44:06;18.17;;;13.27;;
11054;SDS011;5580;50.106;8.702;2022-08-26T13:46:31;19.88;;;13.30;;
11054;SDS011;5580;50.106;8.702;2022-08-26T13:48:57;19.25;;;13.55;;
11054;SDS011;5580;50.106;8.702;2022-08-26T13:51:23;19.92;;;15.07;;
11054;SDS011;5580;50.106;8.702;2022-08-26T13:53:50;21.17;;;13.90;;
11054;SDS011;5580;50.106;8.702;2022-08-26T13:56:17;22.00;;;15.20;;
11054;SDS011;5580;50.106;8.702;2022-08-26T13:58:43;19.30;;;13.85;;
11054;SDS011;5580;50.106;8.702;2022-08-26T14:01:09;18.48;;;15.15;;
11054;SDS011;5580;50.106;8.702;2022-08-26T14:03:35;18.25;;;14.98;;
11054;SDS011;5580;50.106;8.702;2022-08-26T14:06:01;22.42;;;15.90;;
11054;SDS011;5580;50.106;8.702;2022-08-26T14:08:27;22.15;;;16.48;;
11054;SDS011;5580;50.106;8.702;2022-08-26T14:10:52;20.73;;;15.80;;
11054;SDS011;5580;50.106;8.702;2022-08-26T14:13:18;22.35;;;15.07;;
11054;SDS011;5580;50.106;8.702;2022-08-26T14:15:44;20.50;;;14.55;;
11054;SDS011;5580;50.106;8.702;2022-08-26T14:18:11;20.42;;;15.40;;
11054;SDS011;5580;50.106;8.702;2022-08-26T14:20:40;21.33;;;15.38;;
11054;SDS011;5580;50.106;8.702;2022-08-26T14:23:06;22.17;;;15.75;;
11054;SDS011;5580;50.106;8.702;2022-08-26T14:25:32;24.08;;;15.32;;
11054;SDS011;5580;50.106;8.702;2022-08-26T14:27:57;21.90;;;15.38;;
11054;SDS011;5580;50.106;8.702;2022-08-26T14:30:23;20.15;;;15.00;;
11054;SDS011;5580;50.106;8.702;2022-08-26T14:32:50;25.67;;;15.13;;
11054;SDS011;5580;50.106;8.702;2022-08-26T14:35:20;22.58;;;14.60;;
11054;SDS011;5580;50.106;8.702;2022-08-26T14:37:48;22.00;;;14.43;;
11054;SDS011;5580;50.106;8.702;2022-08-26T14:40:15;20.83;;;14.55;;
11054;SDS011;5580;50.106;8.702;2022-08-26T14:42:43;18.38;;;13.77;;
11054;SDS011;5580;50.106;8.702;2022-08-26T14:45:12;21.73;;;12.98;;
11054;SDS011;5580;50.106;8.702;2022-08-26T14:47:41;20.00;;;12.32;;
11054;SDS011;5580;50.106;8.702;2022-08-26T14:50:12;18.10;;;12.00;;
11054;SDS011;5580;50.106;8.702;2022-08-26T14:52:41;16.38;;;11.43;;
11054;SDS011;5580;50.106;8.702;2022-08-26T14:55:26;17.25;;;11.32;;
11054;SDS011;5580;50.106;8.702;2022-08-26T14:57:53;17.77;;;11.18;;
11054;SDS011;5580;50.106;8.702;2022-08-26T15:00:18;16.42;;;11.13;;
11054;SDS011;5580;50.106;8.702;2022-08-26T15:02:44;14.80;;;10.05;;
11054;SDS011;5580;50.106;8.702;2022-08-26T15:05:10;16.45;;;10.50;;
11054;SDS011;5580;50.106;8.702;2022-08-26T15:07:37;15.77;;;11.18;;
11054;SDS011;5580;50.106;8.702;2022-08-26T15:10:03;16.02;;;10.15;;
11054;SDS011;5580;50.106;8.702;2022-08-26T15:12:30;15.85;;;10.05;;
11054;SDS011;5580;50.106;8.702;2022-08-26T15:14:56;13.52;;;9.95;;
11054;SDS011;5580;50.106;8.702;2022-08-26T15:17:22;14.70;;;9.27;;
11054;SDS011;5580;50.106;8.702;2022-08-26T15:19:48;16.45;;;9.90;;
11054;SDS011;5580;50.106;8.702;2022-08-26T15:22:13;15.25;;;10.20;;
11054;SDS011;5580;50.106;8.702;2022-08-26T15:24:39;14.68;;;10.38;;
11054;SDS011;5580;50.106;8.702;2022-08-26T15:27:05;14.95;;;10.15;;
11054;SDS011;5580;50.106;8.702;2022-08-26T15:29:32;17.40;;;11.30;;
11054;SDS011;5580;50.106;8.702;2022-08-26T15:31:57;18.58;;;12.63;;
11054;SDS011;5580;50.106;8.702;2022-08-26T15:34:25;18.67;;;13.40;;
11054;SDS011;5580;50.106;8.702;2022-08-26T15:36:51;19.40;;;14.10;;
11054;SDS011;5580;50.106;8.702;2022-08-26T15:39:16;20.60;;;14.68;;
11054;SDS011;5580;50.106;8.702;2022-08-26T15:41:42;18.92;;;14.55;;
11054;SDS011;5580;50.106;8.702;2022-08-26T15:44:08;19.65;;;14.40;;
11054;SDS011;5580;50.106;8.702;2022-08-26T15:46:34;22.25;;;15.02;;
11054;SDS011;5580;50.106;8.702;2022-08-26T15:49:00;22.08;;;15.70;;
11054;SDS011;5580;50.106;8.702;2022-08-26T15:53:53;22.67;;;15.90;;
11054;SDS011;5580;50.106;8.702;2022-08-26T15:56:21;21.40;;;15.88;;
11054;SDS011;5580;50.106;8.702;2022-08-26T15:58:51;25.92;;;16.58;;
11054;SDS011;5580;50.106;8.702;2022-08-26T16:01:18;18.90;;;15.80;;
11054;SDS011;5580;50.106;8.702;2022-08-26T16:03:44;22.15;;;16.42;;
11054;SDS011;5580;50.106;8.702;2022-08-26T16:06:13;21.63;;;17.60;;
11054;SDS011;5580;50.106;8.702;2022-08-26T16:08:40;21.88;;;17.92;;
11054;SDS011;5580;50.106;8.702;2022-08-26T16:11:06;22.13;;;18.27;;